sensor_id;sensor_type;location;lat;lon;timestamp;pressure;altitude;pressure_sealevel;temperature;humidity
73516;BME280;61763;51.416;5.442;2022-12-16T00:02:15;100931.50;;;-3.99;100.00
73516;BME280;61763;51.416;5.442;2022-12-16T00:04:40;100930.66;;;-3.95;100.00
73516;BME280;61763;51.416;5.442;2022-12-16T00:07:06;100922.75;;;-3.92;100.00
73516;BME280;61763;51.416;5.442;2022-12-16T00:09:31;100925.47;;;-3.87;100.00
73516;BME280;61763;51.416;5.442;2022-12-16T00:11:57;100924.59;;;-3.84;100.00
73516;BME280;61763;51.416;5.442;2022-12-16T00:14:23;100922.00;;;-3.81;100.00
73516;BME280;61763;51.416;5.442;2022-12-16T00:16:48;100921.16;;;-3.76;100.00
73516;BME280;61763;51.416;5.442;2022-12-16T00:19:13;100923.78;;;-3.77;100.00
73516;BME280;61763;51.416;5.442;2022-12-16T00:21:39;100925.56;;;-3.76;100.00
73516;BME280;61763;51.416;5.442;2022-12-16T00:24:04;100924.75;;;-3.72;100.00
73516;BME280;61763;51.416;5.442;2022-12-16T00:26:30;100917.72;;;-3.70;100.00
73516;BME280;61763;51.416;5.442;2022-12-16T00:28:56;100921.31;;;-3.63;100.00
73516;BME280;61763;51.416;5.442;2022-12-16T00:31:22;100912.50;;;-3.62;100.00
73516;BME280;61763;51.416;5.442;2022-12-16T00:33:47;100909.03;;;-3.58;100.00
73516;BME280;61763;51.416;5.442;2022-12-16T00:36:14;100911.69;;;-3.54;100.00
73516;BME280;61763;51.416;5.442;2022-12-16T00:38:39;100909.97;;;-3.53;100.00
73516;BME280;61763;51.416;5.442;2022-12-16T00:41:05;100911.72;;;-3.50;100.00
73516;BME280;61763;51.416;5.442;2022-12-16T00:43:30;100917.91;;;-3.50;100.00
73516;BME280;61763;51.416;5.442;2022-12-16T00:45:57;100917.03;;;-3.47;100.00
73516;BME280;61763;51.416;5.442;2022-12-16T00:48:22;100917.91;;;-3.47;100.00
73516;BME280;61763;51.416;5.442;2022-12-16T00:50:51;100915.31;;;-3.44;100.00
73516;BME280;61763;51.416;5.442;2022-12-16T00:53:18;100917.06;;;-3.43;100.00
73516;BME280;61763;51.416;5.442;2022-12-16T00:55:43;100917.09;;;-3.40;100.00
73516;BME280;61763;51.416;5.442;2022-12-16T00:58:08;100925.88;;;-3.39;100.00
73516;BME280;61763;51.416;5.442;2022-12-16T01:00:34;100918.00;;;-3.36;100.00
73516;BME280;61763;51.416;5.442;2022-12-16T01:03:00;100927.72;;;-3.29;100.00
73516;BME280;61763;51.416;5.442;2022-12-16T01:05:25;100919.81;;;-3.27;100.00
73516;BME280;61763;51.416;5.442;2022-12-16T01:07:54;100922.47;;;-3.24;100.00
73516;BME280;61763;51.416;5.442;2022-12-16T01:10:21;100918.13;;;-3.22;100.00
73516;BME280;61763;51.416;5.442;2022-12-16T01:12:46;100926.94;;;-3.19;100.00
73516;BME280;61763;51.416;5.442;2022-12-16T01:15:12;100932.22;;;-3.15;100.00
73516;BME280;61763;51.416;5.442;2022-12-16T01:17:39;100934.88;;;-3.14;100.00
73516;BME280;61763;51.416;5.442;2022-12-16T01:20:06;100939.28;;;-3.13;100.00
73516;BME280;61763;51.416;5.442;2022-12-16T01:22:32;100937.53;;;-3.09;100.00
73516;BME280;61763;51.416;5.442;2022-12-16T01:24:59;100942.91;;;-3.03;100.00
73516;BME280;61763;51.416;5.442;2022-12-16T01:27:25;100946.44;;;-2.95;100.00
73516;BME280;61763;51.416;5.442;2022-12-16T01:29:51;100949.06;;;-3.00;100.00
73516;BME280;61763;51.416;5.442;2022-12-16T01:32:16;100948.19;;;-2.98;100.00
73516;BME280;61763;51.416;5.442;2022-12-16T01:34:42;100951.72;;;-2.96;100.00
73516;BME280;61763;51.416;5.442;2022-12-16T01:37:12;100958.78;;;-2.95;100.00
73516;BME280;61763;51.416;5.442;2022-12-16T01:39:38;100959.66;;;-2.93;100.00
73516;BME280;61763;51.416;5.442;2022-12-16T01:42:09;100969.38;;;-2.92;100.00
73516;BME280;61763;51.416;5.442;2022-12-16T01:44:36;100972.91;;;-2.89;100.00
73516;BME280;61763;51.416;5.442;2022-12-16T01:47:04;100966.75;;;-2.89;100.00
73516;BME280;61763;51.416;5.442;2022-12-16T01:49:36;100975.53;;;-2.89;100.00
73516;BME280;61763;51.416;5.442;2022-12-16T01:52:08;100977.34;;;-2.85;100.00
73516;BME280;61763;51.416;5.442;2022-12-16T01:54:40;100976.47;;;-2.85;100.00
73516;BME280;61763;51.416;5.442;2022-12-16T01:57:11;100979.13;;;-2.80;100.00
73516;BME280;61763;51.416;5.442;2022-12-16T01:59:40;100981.75;;;-2.82;100.00
73516;BME280;61763;51.416;5.442;2022-12-16T02:02:09;100980.09;;;-2.66;100.00
73516;BME280;61763;51.416;5.442;2022-12-16T02:04:36;100984.47;;;-2.70;100.00
73516;BME280;61763;51.416;5.442;2022-12-16T02:07:21;100986.22;;;-2.72;100.00
73516;BME280;61763;51.416;5.442;2022-12-16T02:09:46;100987.13;;;-2.70;100.00
73516;BME280;61763;51.416;5.442;2022-12-16T02:23:20;100998.59;;;-2.68;100.00
73516;BME280;61763;51.416;5.442;2022-12-16T02:37:08;101004.75;;;-2.66;100.00
73516;BME280;61763;51.416;5.442;2022-12-16T02:42:24;101012.69;;;-2.64;100.00
73516;BME280;61763;51.416;5.442;2022-12-16T02:45:02;101008.31;;;-2.63;100.00
73516;BME280;61763;51.416;5.442;2022-12-16T02:47:29;101008.31;;;-2.63;100.00
73516;BME280;61763;51.416;5.442;2022-12-16T02:49:55;101006.53;;;-2.63;100.00
73516;BME280;61763;51.416;5.442;2022-12-16T02:52:24;101012.72;;;-2.61;100.00
73516;BME280;61763;51.416;5.442;2022-12-16T02:54:54;101004.81;;;-2.58;100.00
73516;BME280;61763;51.416;5.442;2022-12-16T03:00:19;101003.91;;;-2.61;100.00
73516;BME280;61763;51.416;5.442;2022-12-16T03:02:52;101013.59;;;-2.62;100.00
73516;BME280;61763;51.416;5.442;2022-12-16T03:05:29;101010.06;;;-2.64;100.00
73516;BME280;61763;51.416;5.442;2022-12-16T03:08:04;101010.06;;;-2.62;100.00
73516;BME280;61763;51.416;5.442;2022-12-16T03:10:38;101016.19;;;-2.67;100.00
73516;BME280;61763;51.416;5.442;2022-12-16T03:13:07;101021.47;;;-2.68;100.00
73516;BME280;61763;51.416;5.442;2022-12-16T03:15:35;101017.94;;;-2.69;100.00
73516;BME280;61763;51.416;5.442;2022-12-16T03:18:02;101017.06;;;-2.71;100.00
73516;BME280;61763;51.416;5.442;2022-12-16T03:20:34;101016.19;;;-2.68;100.00
73516;BME280;61763;51.416;5.442;2022-12-16T03:23:09;101031.16;;;-2.67;100.00
73516;BME280;61763;51.416;5.442;2022-12-16T03:25:37;101023.25;;;-2.64;100.00
73516;BME280;61763;51.416;5.442;2022-12-16T03:29:10;101023.25;;;-2.64;100.00
73516;BME280;61763;51.416;5.442;2022-12-16T03:31:09;101032.03;;;-2.67;100.00
73516;BME280;61763;51.416;5.442;2022-12-16T03:33:40;101025.91;;;-2.62;100.00
73516;BME280;61763;51.416;5.442;2022-12-16T03:36:16;101029.47;;;-2.59;100.00
73516;BME280;61763;51.416;5.442;2022-12-16T03:38:45;101031.22;;;-2.58;100.00
73516;BME280;61763;51.416;5.442;2022-12-16T03:41:13;101037.41;;;-2.56;100.00
73516;BME280;61763;51.416;5.442;2022-12-16T03:43:40;101040.06;;;-2.54;100.00
73516;BME280;61763;51.416;5.442;2022-12-16T03:46:06;101034.81;;;-2.48;100.00
73516;BME280;61763;51.416;5.442;2022-12-16T03:48:32;101031.28;;;-2.50;100.00
73516;BME280;61763;51.416;5.442;2022-12-16T03:50:58;101031.31;;;-2.44;100.00
73516;BME280;61763;51.416;5.442;2022-12-16T03:53:24;101034.84;;;-2.43;100.00
73516;BME280;61763;51.416;5.442;2022-12-16T03:55:52;101038.41;;;-2.38;100.00
73516;BME280;61763;51.416;5.442;2022-12-16T03:58:18;101033.13;;;-2.40;100.00
73516;BME280;61763;51.416;5.442;2022-12-16T04:00:43;101041.06;;;-2.35;100.00
73516;BME280;61763;51.416;5.442;2022-12-16T04:03:08;101046.38;;;-2.34;100.00
73516;BME280;61763;51.416;5.442;2022-12-16T04:05:34;101033.16;;;-2.29;100.00
73516;BME280;61763;51.416;5.442;2022-12-16T04:07:59;101042.88;;;-2.31;100.00
73516;BME280;61763;51.416;5.442;2022-12-16T04:10:25;101042.00;;;-2.22;100.00
73516;BME280;61763;51.416;5.442;2022-12-16T04:13:09;101048.19;;;-2.20;100.00
73516;BME280;61763;51.416;5.442;2022-12-16T04:15:54;101048.19;;;-2.22;100.00
73516;BME280;61763;51.416;5.442;2022-12-16T04:18:39;101049.97;;;-2.19;100.00
73516;BME280;61763;51.416;5.442;2022-12-16T04:21:24;101057.00;;;-2.20;100.00
73516;BME280;61763;51.416;5.442;2022-12-16T04:24:13;101055.28;;;-2.16;100.00
73516;BME280;61763;51.416;5.442;2022-12-16T04:26:48;101062.31;;;-2.15;100.00
73516;BME280;61763;51.416;5.442;2022-12-16T04:29:32;101062.31;;;-2.12;100.00
73516;BME280;61763;51.416;5.442;2022-12-16T04:31:59;101068.53;;;-2.08;100.00
73516;BME280;61763;51.416;5.442;2022-12-16T04:34:25;101080.00;;;-2.05;100.00
73516;BME280;61763;51.416;5.442;2022-12-16T04:36:58;101083.56;;;-2.03;100.00
73516;BME280;61763;51.416;5.442;2022-12-16T04:39:45;101076.50;;;-2.02;100.00
73516;BME280;61763;51.416;5.442;2022-12-16T04:42:29;101083.56;;;-1.98;100.00
73516;BME280;61763;51.416;5.442;2022-12-16T04:45:13;101088.88;;;-1.97;100.00
73516;BME280;61763;51.416;5.442;2022-12-16T04:47:57;101094.19;;;-1.94;100.00
73516;BME280;61763;51.416;5.442;2022-12-16T04:50:41;101097.69;;;-1.96;100.00
73516;BME280;61763;51.416;5.442;2022-12-16T04:53:25;101099.47;;;-1.92;100.00
73516;BME280;61763;51.416;5.442;2022-12-16T04:56:10;101090.66;;;-1.96;100.00
73516;BME280;61763;51.416;5.442;2022-12-16T04:58:54;101102.13;;;-1.90;100.00
73516;BME280;61763;51.416;5.442;2022-12-16T05:01:38;101097.78;;;-1.81;100.00
73516;BME280;61763;51.416;5.442;2022-12-16T05:04:22;101091.56;;;-1.84;100.00
73516;BME280;61763;51.416;5.442;2022-12-16T05:07:06;101100.41;;;-1.87;100.00
73516;BME280;61763;51.416;5.442;2022-12-16T05:09:50;101096.84;;;-1.87;100.00
73516;BME280;61763;51.416;5.442;2022-12-16T05:12:33;101106.56;;;-1.83;100.00
73516;BME280;61763;51.416;5.442;2022-12-16T05:15:17;101112.72;;;-1.83;100.00
73516;BME280;61763;51.416;5.442;2022-12-16T05:18:12;101106.59;;;-1.80;100.00
73516;BME280;61763;51.416;5.442;2022-12-16T05:20:57;101118.94;;;-1.78;100.00
73516;BME280;61763;51.416;5.442;2022-12-16T05:23:42;101118.06;;;-1.78;100.00
73516;BME280;61763;51.416;5.442;2022-12-16T05:26:26;101118.09;;;-1.75;100.00
73516;BME280;61763;51.416;5.442;2022-12-16T05:29:10;101124.25;;;-1.71;100.00
73516;BME280;61763;51.416;5.442;2022-12-16T05:31:54;101125.19;;;-1.65;100.00
73516;BME280;61763;51.416;5.442;2022-12-16T05:34:38;101131.34;;;-1.66;100.00
73516;BME280;61763;51.416;5.442;2022-12-16T05:37:22;101132.22;;;-1.64;100.00
73516;BME280;61763;51.416;5.442;2022-12-16T05:40:08;101142.81;;;-1.62;100.00
73516;BME280;61763;51.416;5.442;2022-12-16T05:42:52;101151.69;;;-1.57;100.00
73516;BME280;61763;51.416;5.442;2022-12-16T05:45:36;101157.84;;;-1.55;100.00
73516;BME280;61763;51.416;5.442;2022-12-16T05:48:20;101152.56;;;-1.53;100.00
73516;BME280;61763;51.416;5.442;2022-12-16T05:51:04;101160.50;;;-1.52;100.00
73516;BME280;61763;51.416;5.442;2022-12-16T05:53:47;101167.56;;;-1.54;100.00
73516;BME280;61763;51.416;5.442;2022-12-16T05:56:32;101168.44;;;-1.55;100.00
73516;BME280;61763;51.416;5.442;2022-12-16T05:59:16;101166.69;;;-1.56;100.00
73516;BME280;61763;51.416;5.442;2022-12-16T06:02:00;101168.44;;;-1.52;100.00
73516;BME280;61763;51.416;5.442;2022-12-16T06:04:44;101176.41;;;-1.49;100.00
73516;BME280;61763;51.416;5.442;2022-12-16T06:07:28;101175.53;;;-1.51;100.00
73516;BME280;61763;51.416;5.442;2022-12-16T06:10:11;101179.06;;;-1.50;100.00
73516;BME280;61763;51.416;5.442;2022-12-16T06:12:55;101177.31;;;-1.47;100.00
73516;BME280;61763;51.416;5.442;2022-12-16T06:15:39;101179.97;;;-1.41;100.00
73516;BME280;61763;51.416;5.442;2022-12-16T06:18:23;101186.16;;;-1.43;100.00
73516;BME280;61763;51.416;5.442;2022-12-16T06:21:07;101189.72;;;-1.38;100.00
73516;BME280;61763;51.416;5.442;2022-12-16T06:23:51;101189.69;;;-1.43;100.00
73516;BME280;61763;51.416;5.442;2022-12-16T06:26:35;101187.91;;;-1.44;100.00
73516;BME280;61763;51.416;5.442;2022-12-16T06:29:18;101193.22;;;-1.44;100.00
73516;BME280;61763;51.416;5.442;2022-12-16T06:32:02;101192.34;;;-1.41;100.00
73516;BME280;61763;51.416;5.442;2022-12-16T06:34:46;101198.53;;;-1.37;100.00
73516;BME280;61763;51.416;5.442;2022-12-16T06:37:30;101195.88;;;-1.37;100.00
73516;BME280;61763;51.416;5.442;2022-12-16T06:40:14;101202.03;;;-1.40;100.00
73516;BME280;61763;51.416;5.442;2022-12-16T06:42:57;101206.47;;;-1.39;100.00
73516;BME280;61763;51.416;5.442;2022-12-16T06:45:41;101204.69;;;-1.40;100.00
73516;BME280;61763;51.416;5.442;2022-12-16T06:48:25;101212.63;;;-1.40;100.00
73516;BME280;61763;51.416;5.442;2022-12-16T06:51:09;101214.41;;;-1.37;100.00
73516;BME280;61763;51.416;5.442;2022-12-16T06:53:53;101221.50;;;-1.33;100.00
73516;BME280;61763;51.416;5.442;2022-12-16T06:56:37;101222.38;;;-1.36;100.00
73516;BME280;61763;51.416;5.442;2022-12-16T06:59:21;101227.66;;;-1.34;100.00
73516;BME280;61763;51.416;5.442;2022-12-16T07:02:09;101221.50;;;-1.32;100.00
73516;BME280;61763;51.416;5.442;2022-12-16T07:04:53;101222.38;;;-1.34;100.00
73516;BME280;61763;51.416;5.442;2022-12-16T07:07:38;101227.69;;;-1.31;100.00
73516;BME280;61763;51.416;5.442;2022-12-16T07:10:23;101235.63;;;-1.33;100.00
73516;BME280;61763;51.416;5.442;2022-12-16T07:13:06;101239.16;;;-1.35;100.00
73516;BME280;61763;51.416;5.442;2022-12-16T07:15:50;101243.53;;;-1.36;100.00
73516;BME280;61763;51.416;5.442;2022-12-16T07:18:34;101255.06;;;-1.31;100.00
73516;BME280;61763;51.416;5.442;2022-12-16T07:21:17;101253.31;;;-1.27;100.00
73516;BME280;61763;51.416;5.442;2022-12-16T07:24:01;101259.47;;;-1.30;100.00
73516;BME280;61763;51.416;5.442;2022-12-16T07:26:45;101269.19;;;-1.29;100.00
73516;BME280;61763;51.416;5.442;2022-12-16T07:29:29;101269.22;;;-1.23;100.00
73516;BME280;61763;51.416;5.442;2022-12-16T07:32:12;101278.94;;;-1.21;100.00
73516;BME280;61763;51.416;5.442;2022-12-16T07:34:56;101289.50;;;-1.29;100.00
73516;BME280;61763;51.416;5.442;2022-12-16T07:37:40;101289.50;;;-1.29;100.00
73516;BME280;61763;51.416;5.442;2022-12-16T07:40:24;101285.09;;;-1.27;100.00
73516;BME280;61763;51.416;5.442;2022-12-16T07:43:08;101290.41;;;-1.21;100.00
73516;BME280;61763;51.416;5.442;2022-12-16T07:45:52;101295.69;;;-1.23;100.00
73516;BME280;61763;51.416;5.442;2022-12-16T07:48:36;101293.06;;;-1.19;100.00
73516;BME280;61763;51.416;5.442;2022-12-16T07:51:20;101296.59;;;-1.24;100.00
73516;BME280;61763;51.416;5.442;2022-12-16T07:54:11;101303.63;;;-1.23;100.00
73516;BME280;61763;51.416;5.442;2022-12-16T07:56:55;101307.22;;;-1.17;100.00
73516;BME280;61763;51.416;5.442;2022-12-16T07:59:39;101306.31;;;-1.19;100.00
73516;BME280;61763;51.416;5.442;2022-12-16T08:02:43;101314.34;;;-1.01;100.00
73516;BME280;61763;51.416;5.442;2022-12-16T08:05:27;101322.25;;;-1.13;100.00
73516;BME280;61763;51.416;5.442;2022-12-16T08:08:11;101326.66;;;-1.11;100.00
73516;BME280;61763;51.416;5.442;2022-12-16T08:10:55;101322.25;;;-1.13;100.00
73516;BME280;61763;51.416;5.442;2022-12-16T08:13:39;101323.97;;;-1.18;100.00
73516;BME280;61763;51.416;5.442;2022-12-16T08:16:23;101329.25;;;-1.21;100.00
73516;BME280;61763;51.416;5.442;2022-12-16T08:19:07;101332.72;;;-1.32;100.00
73516;BME280;61763;51.416;5.442;2022-12-16T08:21:51;101336.22;;;-1.34;100.00
73516;BME280;61763;51.416;5.442;2022-12-16T08:24:35;101347.66;;;-1.42;100.00
73516;BME280;61763;51.416;5.442;2022-12-16T08:27:20;101344.97;;;-1.48;100.00
73516;BME280;61763;51.416;5.442;2022-12-16T08:30:05;101357.31;;;-1.51;100.00
73516;BME280;61763;51.416;5.442;2022-12-16T08:32:49;101350.19;;;-1.60;100.00
73516;BME280;61763;51.416;5.442;2022-12-16T08:35:32;101357.16;;;-1.68;100.00
73516;BME280;61763;51.416;5.442;2022-12-16T08:38:30;101367.69;;;-1.78;100.00
73516;BME280;61763;51.416;5.442;2022-12-16T08:41:14;101370.28;;;-1.84;100.00
73516;BME280;61763;51.416;5.442;2022-12-16T08:43:57;101384.34;;;-1.88;100.00
73516;BME280;61763;51.416;5.442;2022-12-16T08:46:41;101381.69;;;-1.88;100.00
73516;BME280;61763;51.416;5.442;2022-12-16T08:49:25;101364.91;;;-1.90;100.00
73516;BME280;61763;51.416;5.442;2022-12-16T08:52:09;101391.47;;;-1.81;100.00
73516;BME280;61763;51.416;5.442;2022-12-16T08:54:53;101390.69;;;-1.69;100.00
73516;BME280;61763;51.416;5.442;2022-12-16T08:57:37;101401.38;;;-1.56;100.00
73516;BME280;61763;51.416;5.442;2022-12-16T09:00:21;101399.75;;;-1.41;100.00
73516;BME280;61763;51.416;5.442;2022-12-16T09:03:05;101405.19;;;-1.22;100.00
73516;BME280;61763;51.416;5.442;2022-12-16T09:05:49;101411.34;;;-1.23;100.00
73516;BME280;61763;51.416;5.442;2022-12-16T09:08:33;101407.84;;;-1.22;100.00
73516;BME280;61763;51.416;5.442;2022-12-16T09:11:17;101423.75;;;-1.17;100.00
73516;BME280;61763;51.416;5.442;2022-12-16T09:14:01;101431.78;;;-1.07;100.00
73516;BME280;61763;51.416;5.442;2022-12-16T09:16:47;101422.09;;;-1.01;100.00
73516;BME280;61763;51.416;5.442;2022-12-16T09:19:30;101425.63;;;-1.01;100.00
73516;BME280;61763;51.416;5.442;2022-12-16T09:22:14;101422.97;;;-1.02;100.00
73516;BME280;61763;51.416;5.442;2022-12-16T09:24:58;101430.00;;;-1.06;100.00
73516;BME280;61763;51.416;5.442;2022-12-16T09:27:43;101425.66;;;-0.96;100.00
73516;BME280;61763;51.416;5.442;2022-12-16T09:30:26;101428.31;;;-0.95;100.00
73516;BME280;61763;51.416;5.442;2022-12-16T09:33:10;101434.47;;;-0.99;100.00
73516;BME280;61763;51.416;5.442;2022-12-16T09:35:54;101430.97;;;-0.92;100.00
73516;BME280;61763;51.416;5.442;2022-12-16T09:38:38;101451.41;;;-0.75;100.00
73516;BME280;61763;51.416;5.442;2022-12-16T09:47:23;101456.78;;;-0.64;100.00
73516;BME280;61763;51.416;5.442;2022-12-16T09:50:29;101452.38;;;-0.56;100.00
73516;BME280;61763;51.416;5.442;2022-12-16T09:53:17;101463.00;;;-0.55;100.00
73516;BME280;61763;51.416;5.442;2022-12-16T09:56:04;101463.94;;;-0.46;100.00
73516;BME280;61763;51.416;5.442;2022-12-16T09:58:57;101459.50;;;-0.49;100.00
73516;BME280;61763;51.416;5.442;2022-12-16T10:01:42;101476.34;;;-0.38;100.00
73516;BME280;61763;51.416;5.442;2022-12-16T10:04:26;101480.78;;;-0.40;100.00
73516;BME280;61763;51.416;5.442;2022-12-16T10:07:16;101482.53;;;-0.42;100.00
73516;BME280;61763;51.416;5.442;2022-12-16T10:10:24;101483.38;;;-0.46;100.00
73516;BME280;61763;51.416;5.442;2022-12-16T10:16:36;101497.69;;;-0.19;100.00
73516;BME280;61763;51.416;5.442;2022-12-16T10:19:53;101495.06;;;-0.02;100.00
73516;BME280;61763;51.416;5.442;2022-12-16T10:23:02;101492.44;;;0.03;100.00
73516;BME280;61763;51.416;5.442;2022-12-16T10:26:01;101508.38;;;0.09;100.00
73516;BME280;61763;51.416;5.442;2022-12-16T10:28:48;101508.25;;;-0.24;100.00
73516;BME280;61763;51.416;5.442;2022-12-16T10:31:36;101502.84;;;-0.44;100.00
73516;BME280;61763;51.416;5.442;2022-12-16T10:34:25;101511.72;;;-0.39;100.00
73516;BME280;61763;51.416;5.442;2022-12-16T10:37:31;101506.41;;;-0.39;100.00
73516;BME280;61763;51.416;5.442;2022-12-16T10:40:18;101507.31;;;-0.33;100.00
73516;BME280;61763;51.416;5.442;2022-12-16T10:43:36;101517.09;;;-0.29;100.00
73516;BME280;61763;51.416;5.442;2022-12-16T10:46:25;101517.94;;;-0.32;100.00
73516;BME280;61763;51.416;5.442;2022-12-16T10:49:14;101517.03;;;-0.34;100.00
73516;BME280;61763;51.416;5.442;2022-12-16T10:51:58;101524.13;;;-0.28;100.00
73516;BME280;61763;51.416;5.442;2022-12-16T10:55:18;101521.44;;;-0.36;100.00
73516;BME280;61763;51.416;5.442;2022-12-16T10:58:31;101523.22;;;-0.35;100.00
73516;BME280;61763;51.416;5.442;2022-12-16T11:01:24;101523.22;;;-0.38;100.00
73516;BME280;61763;51.416;5.442;2022-12-16T11:04:36;101512.63;;;-0.33;100.00
73516;BME280;61763;51.416;5.442;2022-12-16T11:10:27;101518.66;;;-0.59;100.00
73516;BME280;61763;51.416;5.442;2022-12-16T11:13:16;101525.69;;;-0.66;100.00
73516;BME280;61763;51.416;5.442;2022-12-16T11:16:30;101526.56;;;-0.68;100.00
73516;BME280;61763;51.416;5.442;2022-12-16T11:19:28;101526.41;;;-0.89;100.00
73516;BME280;61763;51.416;5.442;2022-12-16T11:22:17;101525.59;;;-0.80;100.00
73516;BME280;61763;51.416;5.442;2022-12-16T11:25:15;101532.69;;;-0.76;100.00
73516;BME280;61763;51.416;5.442;2022-12-16T11:28:04;101532.84;;;-0.54;100.00
73516;BME280;61763;51.416;5.442;2022-12-16T11:30:53;101524.13;;;-0.33;100.00
73516;BME280;61763;51.416;5.442;2022-12-16T11:33:39;101525.13;;;-0.09;100.00
73516;BME280;61763;51.416;5.442;2022-12-16T11:36:30;101529.56;;;-0.04;100.00
73516;BME280;61763;51.416;5.442;2022-12-16T11:39:18;101527.84;;;0.08;100.00
73516;BME280;61763;51.416;5.442;2022-12-16T11:42:05;101523.28;;;-0.26;100.00
73516;BME280;61763;51.416;5.442;2022-12-16T11:44:54;101514.38;;;-0.32;100.00
73516;BME280;61763;51.416;5.442;2022-12-16T11:47:47;101525.97;;;-0.18;100.00
73516;BME280;61763;51.416;5.442;2022-12-16T11:50:36;101524.25;;;-0.07;100.00
73516;BME280;61763;51.416;5.442;2022-12-16T11:53:29;101524.22;;;-0.14;100.00
73516;BME280;61763;51.416;5.442;2022-12-16T11:56:19;101518.84;;;-0.22;100.00
73516;BME280;61763;51.416;5.442;2022-12-16T11:59:35;101518.91;;;-0.19;100.00
73516;BME280;61763;51.416;5.442;2022-12-16T12:02:25;101525.94;;;-0.23;100.00
73516;BME280;61763;51.416;5.442;2022-12-16T12:05:13;101523.41;;;0.05;100.00
73516;BME280;61763;51.416;5.442;2022-12-16T12:08:24;101519.94;;;0.28;100.00
73516;BME280;61763;51.416;5.442;2022-12-16T12:11:19;101522.59;;;0.22;100.00
73516;BME280;61763;51.416;5.442;2022-12-16T12:17:05;101520.84;;;0.30;100.00
73516;BME280;61763;51.416;5.442;2022-12-16T12:20:08;101523.41;;;0.07;100.00
73516;BME280;61763;51.416;5.442;2022-12-16T12:23:05;101528.72;;;-0.01;100.00
73516;BME280;61763;51.416;5.442;2022-12-16T12:26:04;101531.34;;;-0.09;100.00
73516;BME280;61763;51.416;5.442;2022-12-16T12:28:58;101528.63;;;-0.13;100.00
73516;BME280;61763;51.416;5.442;2022-12-16T12:32:01;101534.75;;;-0.25;100.00
73516;BME280;61763;51.416;5.442;2022-12-16T12:38:15;101536.56;;;-0.23;100.00
73516;BME280;61763;51.416;5.442;2022-12-16T12:41:27;101534.78;;;-0.22;100.00
73516;BME280;61763;51.416;5.442;2022-12-16T12:44:39;101535.53;;;-0.45;100.00
73516;BME280;61763;51.416;5.442;2022-12-16T12:47:28;101540.78;;;-0.57;100.00
73516;BME280;61763;51.416;5.442;2022-12-16T12:50:23;101540.84;;;-0.45;100.00
73516;BME280;61763;51.416;5.442;2022-12-16T12:53:32;101547.09;;;-0.37;100.00
73516;BME280;61763;51.416;5.442;2022-12-16T12:56:36;101545.34;;;-0.28;100.00
73516;BME280;61763;51.416;5.442;2022-12-16T12:59:27;101549.81;;;-0.26;100.00
73516;BME280;61763;51.416;5.442;2022-12-16T13:02:19;101549.81;;;-0.21;100.00
73516;BME280;61763;51.416;5.442;2022-12-16T13:05:04;101551.72;;;0.03;100.00
73516;BME280;61763;51.416;5.442;2022-12-16T13:11:15;101549.97;;;0.07;100.00
73516;BME280;61763;51.416;5.442;2022-12-16T13:13:59;101538.41;;;-0.06;100.00
73516;BME280;61763;51.416;5.442;2022-12-16T13:22:33;101540.88;;;-0.40;100.00
73516;BME280;61763;51.416;5.442;2022-12-16T13:25:37;101553.28;;;-0.38;100.00
73516;BME280;61763;51.416;5.442;2022-12-16T13:28:31;101548.81;;;-0.45;100.00
73516;BME280;61763;51.416;5.442;2022-12-16T13:31:16;101558.53;;;-0.47;100.00
73516;BME280;61763;51.416;5.442;2022-12-16T13:37:01;101566.56;;;-0.34;100.00
73516;BME280;61763;51.416;5.442;2022-12-16T13:40:02;101560.47;;;-0.12;100.00
73516;BME280;61763;51.416;5.442;2022-12-16T13:42:49;101559.75;;;0.26;100.00
73516;BME280;61763;51.416;5.442;2022-12-16T13:45:42;101559.81;;;0.36;100.00
73516;BME280;61763;51.416;5.442;2022-12-16T13:48:36;101569.59;;;0.46;100.00
73516;BME280;61763;51.416;5.442;2022-12-16T13:57:35;101573.19;;;0.69;100.00
73516;BME280;61763;51.416;5.442;2022-12-16T14:00:23;101578.50;;;0.82;100.00
73516;BME280;61763;51.416;5.442;2022-12-16T14:03:17;101573.19;;;0.80;100.00
73516;BME280;61763;51.416;5.442;2022-12-16T14:06:23;101577.63;;;0.94;100.00
73516;BME280;61763;51.416;5.442;2022-12-16T14:09:28;101584.75;;;0.92;100.00
73516;BME280;61763;51.416;5.442;2022-12-16T14:12:45;101590.06;;;0.90;100.00
73516;BME280;61763;51.416;5.442;2022-12-16T14:21:48;101593.59;;;0.83;100.00
73516;BME280;61763;51.416;5.442;2022-12-16T14:24:36;101598.91;;;0.86;100.00
73516;BME280;61763;51.416;5.442;2022-12-16T14:27:21;101605.97;;;0.82;100.00
73516;BME280;61763;51.416;5.442;2022-12-16T14:30:18;101601.56;;;0.86;100.00
73516;BME280;61763;51.416;5.442;2022-12-16T14:33:26;101610.41;;;0.88;100.00
73516;BME280;61763;51.416;5.442;2022-12-16T14:36:26;101619.25;;;0.82;100.00
73516;BME280;61763;51.416;5.442;2022-12-16T14:39:13;101608.59;;;0.73;100.00
73516;BME280;61763;51.416;5.442;2022-12-16T14:41:57;101629.84;;;0.67;100.00
73516;BME280;61763;51.416;5.442;2022-12-16T14:44:46;101620.97;;;0.60;100.00
73516;BME280;61763;51.416;5.442;2022-12-16T14:47:30;101634.22;;;0.51;100.00
73516;BME280;61763;51.416;5.442;2022-12-16T14:50:25;101632.47;;;0.55;100.00
73516;BME280;61763;51.416;5.442;2022-12-16T14:53:21;101639.50;;;0.48;100.00
73516;BME280;61763;51.416;5.442;2022-12-16T14:56:23;101647.47;;;0.40;100.00
73516;BME280;61763;51.416;5.442;2022-12-16T15:01:54;101652.78;;;0.39;100.00
73516;BME280;61763;51.416;5.442;2022-12-16T15:04:40;101650.97;;;0.31;100.00
73516;BME280;61763;51.416;5.442;2022-12-16T15:07:34;101662.44;;;0.29;100.00
73516;BME280;61763;51.416;5.442;2022-12-16T15:10:23;101669.53;;;0.28;100.00
73516;BME280;61763;51.416;5.442;2022-12-16T15:13:17;101666.88;;;0.27;100.00
73516;BME280;61763;51.416;5.442;2022-12-16T15:16:03;101665.06;;;0.23;100.00